KPOC/POC METAR and TAF weather

Enter ICAO airport designator
Station Type Date Time Source
KPOC METAR 2019/12/07 04:47 UTC NOAA

KPOC 070447Z 00000KT 7SM FEW033 OVC040 14/12 A3016 RMK LAST


Station Type Date Time Source
KPOC Decoded METAR 2019/12/07 04:47 UTC NOAA

La Verne / Brackett, CA, United States (KPOC) 34-06N 117-47W
Dec 06, 2019 - 11:47 PM EST / 2019.12.07 0447 UTC
Wind: Calm:0
Visibility: 7 mile(s):0
Sky conditions: overcast
Temperature: 57 F (14 C)
Dew Point: 53 F (12 C)
Relative Humidity: 87%
Pressure (altimeter): 30.16 in. Hg (1021 hPa)
ob: KPOC 070447Z 00000KT 7SM FEW033 OVC040 14/12 A3016 RMK LAST
cycle: 5

Station Type Date Time Source
KPOC TAF UTC NOAA

Error!

Example: see airport list